St. Petersburg, FL

6:05 AM EDT on August 28, 2014 (GMT -0400)
Central Oak Park | Change Station
CLOSE
Current Station
Personal Weather Station
Location: St. Petersburg, FL
Elevation: 70 ft
Nearby Weather Stations

Elev 70 ft 27.79 °N, 82.69 °W | Updated 2 days ago

Partly Cloudy
Partly Cloudy
77 °F
Feels Like 77 °F
N
7
Wind Variable Wind from ESE
Gusts 10 mph

Today
High -- | Low -- °F
--% Chance of Precip.
Yesterday
High -- | Low -- °F
Precip. -- in
7:07 AM 7:55 PM
Waxing Crescent, 7% visible
Pressure 29.96 in
Visibility 10.0 miles
Clouds Scattered Clouds 1900 ft
Dew Point 75 °F
Humidity 94%
Rainfall 0.00 in
Snow Depth Not available.
UV 0 out of 12
Pollen 5.80 out of 12
Air Quality Not available.
Flu Activity Not available.
METAR KSPG 280953Z 09009KT 10SM SCT019 27/23 A2996 RMK AO2 SLP145 T02720233

More Conditions Fewer Conditions

Pressure 29.96 in
Visibility 10.0 miles
Clouds Scattered Clouds 1900 ft
Dew Point 75 °F
Humidity 94%
Rainfall 0.00 in
Snow Depth Not available.
UV 0 out of 12
Pollen 5.80 out of 12
Air Quality Not available.
Flu Activity Not available.
METAR KSPG 280953Z 09009KT 10SM SCT019 27/23 A2996 RMK AO2 SLP145 T02720233

More Conditions Fewer Conditions

10-Day Weather Forecast

Almanac

Astronomy

Aug. 28, 2014 Rise Set
Actual Time 7:07 AM EDT 7:55 PM EDT
Civil Twilight 6:43 AM EDT 8:19 PM EDT
Nautical Twilight 6:15 AM EDT 8:47 PM EDT
Astronomical Twilight 5:46 AM EDT 9:16 PM EDT
Moon 9:40 AM EDT 9:39 PM EDT
Length of Visible Light 13h 36m
Length of Day
12h 48m
Tomorrow will be 1m 33s shorter.
Waxing Crescent, 7% of the Moon is Illuminated
Today
Waxing Crescent
Sep 2
First Quarter
Sep 8
Full
Sep 15
Last Quarter
Sep 24
New

Today's Extremes

State Highs State Lows

Community

WunderPhotos

Upload Photos

1,747,919 photos uploaded!

Nearby

Air Quality

  Air Quality AQ Index Pollutant
Thursday Good
PM2.5
Thursday Good
OZONE

Snow Depth

Station Depth Elevation
No new snow has been reported.

Earthquake Activity

City Distance Mag. Time & Date
No recent earthquake activity has been reported nearby.
Minimum magnitude displayed is 2.5.

Coastal Water Temperatures

Place Temperature
St Petersburg, FL 88.0 °F
Old Port Tampa, FL 86.0 °F
McKay Bay Entrance, FL 87.1 °F

Nearby Weather Stations